sensor_id;sensor_type;location;lat;lon;timestamp;pressure;altitude;pressure_sealevel;temperature;humidity
5062;BME280;2351;50.812;12.872;2022-11-11T00:00:40;99252.81;;;6.09;99.86
5062;BME280;2351;50.812;12.872;2022-11-11T00:03:11;99252.72;;;6.11;100.00
5062;BME280;2351;50.812;12.872;2022-11-11T00:05:44;99251.81;;;6.12;100.00
5062;BME280;2351;50.812;12.872;2022-11-11T00:08:16;99254.28;;;6.15;99.97
5062;BME280;2351;50.812;12.872;2022-11-11T00:10:48;99264.03;;;6.13;100.00
5062;BME280;2351;50.812;12.872;2022-11-11T00:13:19;99262.31;;;6.12;100.00
5062;BME280;2351;50.812;12.872;2022-11-11T00:15:51;99270.22;;;6.12;100.00
5062;BME280;2351;50.812;12.872;2022-11-11T00:18:23;99274.63;;;6.11;100.00
5062;BME280;2351;50.812;12.872;2022-11-11T00:21:13;99274.75;;;6.08;99.87
5062;BME280;2351;50.812;12.872;2022-11-11T00:23:59;99280.16;;;6.05;99.91
5062;BME280;2351;50.812;12.872;2022-11-11T00:26:48;99288.13;;;6.03;99.81
5062;BME280;2351;50.812;12.872;2022-11-11T00:29:20;99287.34;;;6.01;100.00
5062;BME280;2351;50.812;12.872;2022-11-11T00:31:52;99289.09;;;6.01;100.00
5062;BME280;2351;50.812;12.872;2022-11-11T00:34:40;99297.03;;;5.99;100.00
5062;BME280;2351;50.812;12.872;2022-11-11T00:37:33;99304.97;;;5.98;100.00
5062;BME280;2351;50.812;12.872;2022-11-11T00:40:05;99298.97;;;5.96;100.00
5062;BME280;2351;50.812;12.872;2022-11-11T00:42:38;99309.31;;;5.99;100.00
5062;BME280;2351;50.812;12.872;2022-11-11T00:45:10;99298.78;;;6.00;100.00
5062;BME280;2351;50.812;12.872;2022-11-11T00:47:42;99299.66;;;5.99;100.00
5062;BME280;2351;50.812;12.872;2022-11-11T00:50:31;99301.31;;;6.02;100.00
5062;BME280;2351;50.812;12.872;2022-11-11T00:53:24;99293.53;;;6.00;100.00
5062;BME280;2351;50.812;12.872;2022-11-11T00:55:56;99294.34;;;6.01;100.00
5062;BME280;2351;50.812;12.872;2022-11-11T00:58:28;99299.63;;;6.01;100.00
5062;BME280;2351;50.812;12.872;2022-11-11T01:00:59;99298.78;;;6.00;100.00
5062;BME280;2351;50.812;12.872;2022-11-11T01:03:31;99300.50;;;6.01;100.00
5062;BME280;2351;50.812;12.872;2022-11-11T01:06:04;99299.47;;;6.04;100.00
5062;BME280;2351;50.812;12.872;2022-11-11T01:08:37;99302.91;;;6.06;100.00
5062;BME280;2351;50.812;12.872;2022-11-11T01:11:13;99296.63;;;6.09;100.00
5062;BME280;2351;50.812;12.872;2022-11-11T01:13:45;99302.53;;;6.14;100.00
5062;BME280;2351;50.812;12.872;2022-11-11T01:16:19;99293.66;;;6.16;100.00
5062;BME280;2351;50.812;12.872;2022-11-11T01:18:52;99301.34;;;6.21;100.00
5062;BME280;2351;50.812;12.872;2022-11-11T01:21:24;99306.47;;;6.24;100.00
5062;BME280;2351;50.812;12.872;2022-11-11T01:23:57;99310.66;;;6.28;100.00
5062;BME280;2351;50.812;12.872;2022-11-11T01:26:29;99312.28;;;6.31;100.00
5062;BME280;2351;50.812;12.872;2022-11-11T01:29:01;99314.75;;;6.34;100.00
5062;BME280;2351;50.812;12.872;2022-11-11T01:31:32;99298.91;;;6.36;100.00
5062;BME280;2351;50.812;12.872;2022-11-11T01:34:04;99299.69;;;6.38;100.00
5062;BME280;2351;50.812;12.872;2022-11-11T01:36:36;99300.56;;;6.38;100.00
5062;BME280;2351;50.812;12.872;2022-11-11T01:39:09;99299.81;;;6.35;100.00
5062;BME280;2351;50.812;12.872;2022-11-11T01:41:41;99293.88;;;6.31;100.00
5062;BME280;2351;50.812;12.872;2022-11-11T01:44:19;99297.50;;;6.28;100.00
5062;BME280;2351;50.812;12.872;2022-11-11T01:47:10;99301.06;;;6.27;100.00
5062;BME280;2351;50.812;12.872;2022-11-11T01:49:47;99295.03;;;6.25;100.00
5062;BME280;2351;50.812;12.872;2022-11-11T01:52:23;99295.94;;;6.24;100.00
5062;BME280;2351;50.812;12.872;2022-11-11T01:55:01;99298.56;;;6.24;100.00
5062;BME280;2351;50.812;12.872;2022-11-11T01:57:38;99308.31;;;6.22;100.00
5062;BME280;2351;50.812;12.872;2022-11-11T02:00:14;99305.72;;;6.21;100.00
5062;BME280;2351;50.812;12.872;2022-11-11T02:02:49;99309.38;;;6.18;100.00
5062;BME280;2351;50.812;12.872;2022-11-11T02:05:23;99300.63;;;6.17;100.00
5062;BME280;2351;50.812;12.872;2022-11-11T02:08:11;99297.22;;;6.15;100.00
5062;BME280;2351;50.812;12.872;2022-11-11T02:10:45;99304.19;;;6.16;100.00
5062;BME280;2351;50.812;12.872;2022-11-11T02:13:17;99307.66;;;6.17;100.00
5062;BME280;2351;50.812;12.872;2022-11-11T02:16:06;99310.28;;;6.17;100.00
5062;BME280;2351;50.812;12.872;2022-11-11T02:18:38;99303.28;;;6.17;100.00
5062;BME280;2351;50.812;12.872;2022-11-11T02:21:13;99298.75;;;6.20;100.00
5062;BME280;2351;50.812;12.872;2022-11-11T02:23:55;99291.66;;;6.22;100.00
5062;BME280;2351;50.812;12.872;2022-11-11T02:26:30;99288.88;;;6.25;100.00
5062;BME280;2351;50.812;12.872;2022-11-11T02:29:07;99288.84;;;6.26;100.00
5062;BME280;2351;50.812;12.872;2022-11-11T02:31:41;99287.91;;;6.27;100.00
5062;BME280;2351;50.812;12.872;2022-11-11T02:34:13;99290.47;;;6.29;100.00
5062;BME280;2351;50.812;12.872;2022-11-11T02:36:45;99281.72;;;6.28;100.00
5062;BME280;2351;50.812;12.872;2022-11-11T02:39:18;99277.31;;;6.29;100.00
5062;BME280;2351;50.812;12.872;2022-11-11T02:41:50;99274.75;;;6.27;100.00
5062;BME280;2351;50.812;12.872;2022-11-11T02:44:27;99285.28;;;6.27;100.00
5062;BME280;2351;50.812;12.872;2022-11-11T02:46:59;99275.53;;;6.29;100.00
5062;BME280;2351;50.812;12.872;2022-11-11T02:49:31;99278.94;;;6.31;100.00
5062;BME280;2351;50.812;12.872;2022-11-11T02:52:03;99285.97;;;6.31;100.00
5062;BME280;2351;50.812;12.872;2022-11-11T02:54:36;99285.19;;;6.29;100.00
5062;BME280;2351;50.812;12.872;2022-11-11T02:57:09;99287.91;;;6.27;100.00
5062;BME280;2351;50.812;12.872;2022-11-11T02:59:40;99294.94;;;6.27;100.00
5062;BME280;2351;50.812;12.872;2022-11-11T03:02:12;99291.53;;;6.25;100.00
5062;BME280;2351;50.812;12.872;2022-11-11T03:04:44;99290.69;;;6.24;100.00
5062;BME280;2351;50.812;12.872;2022-11-11T03:07:15;99291.53;;;6.25;100.00
5062;BME280;2351;50.812;12.872;2022-11-11T03:09:49;99295.81;;;6.27;100.00
5062;BME280;2351;50.812;12.872;2022-11-11T03:12:20;99295.81;;;6.27;100.00
5062;BME280;2351;50.812;12.872;2022-11-11T03:14:52;99287.00;;;6.28;100.00
5062;BME280;2351;50.812;12.872;2022-11-11T03:17:24;99297.50;;;6.28;100.00
5062;BME280;2351;50.812;12.872;2022-11-11T03:20:12;99299.34;;;6.26;100.00
5062;BME280;2351;50.812;12.872;2022-11-11T03:23:02;99309.94;;;6.25;100.00
5062;BME280;2351;50.812;12.872;2022-11-11T03:25:39;99318.81;;;6.22;100.00
5062;BME280;2351;50.812;12.872;2022-11-11T03:28:13;99327.75;;;6.18;100.00
5062;BME280;2351;50.812;12.872;2022-11-11T03:30:46;99313.84;;;6.16;100.00
5062;BME280;2351;50.812;12.872;2022-11-11T03:33:18;99317.53;;;6.12;100.00
5062;BME280;2351;50.812;12.872;2022-11-11T03:35:49;99321.06;;;6.11;100.00
5062;BME280;2351;50.812;12.872;2022-11-11T03:38:21;99321.16;;;6.09;100.00
5062;BME280;2351;50.812;12.872;2022-11-11T03:40:56;99323.78;;;6.09;100.00
5062;BME280;2351;50.812;12.872;2022-11-11T03:43:30;99314.28;;;6.07;100.00
5062;BME280;2351;50.812;12.872;2022-11-11T03:46:04;99315.94;;;6.08;100.00
5062;BME280;2351;50.812;12.872;2022-11-11T03:48:36;99314.28;;;6.07;100.00
5062;BME280;2351;50.812;12.872;2022-11-11T03:51:07;99316.91;;;6.07;100.00
5062;BME280;2351;50.812;12.872;2022-11-11T03:53:39;99315.94;;;6.08;100.00
5062;BME280;2351;50.812;12.872;2022-11-11T03:56:12;99322.00;;;6.10;100.00
5062;BME280;2351;50.812;12.872;2022-11-11T03:58:44;99324.50;;;6.13;100.00
5062;BME280;2351;50.812;12.872;2022-11-11T04:01:15;99324.34;;;6.16;100.00
5062;BME280;2351;50.812;12.872;2022-11-11T04:04:01;99326.75;;;6.21;100.00
5062;BME280;2351;50.812;12.872;2022-11-11T04:06:50;99327.63;;;6.21;100.00
5062;BME280;2351;50.812;12.872;2022-11-11T04:09:39;99324.91;;;6.23;100.00
5062;BME280;2351;50.812;12.872;2022-11-11T04:12:30;99325.00;;;6.21;100.00
5062;BME280;2351;50.812;12.872;2022-11-11T04:15:24;99316.31;;;6.19;100.00
5062;BME280;2351;50.812;12.872;2022-11-11T04:18:13;99315.53;;;6.17;100.00
5062;BME280;2351;50.812;12.872;2022-11-11T04:20:45;99317.38;;;6.15;100.00
5062;BME280;2351;50.812;12.872;2022-11-11T04:23:34;99317.38;;;6.15;100.00
5062;BME280;2351;50.812;12.872;2022-11-11T04:26:05;99319.78;;;6.20;100.00
5062;BME280;2351;50.812;12.872;2022-11-11T04:28:37;99311.84;;;6.21;100.00
5062;BME280;2351;50.812;12.872;2022-11-11T04:31:26;99315.13;;;6.26;100.00
5062;BME280;2351;50.812;12.872;2022-11-11T04:33:58;99311.41;;;6.30;100.00
5062;BME280;2351;50.812;12.872;2022-11-11T04:36:29;99319.09;;;6.35;100.00
5062;BME280;2351;50.812;12.872;2022-11-11T04:39:00;99317.31;;;6.36;100.00
5062;BME280;2351;50.812;12.872;2022-11-11T04:41:50;99320.59;;;6.41;100.00
5062;BME280;2351;50.812;12.872;2022-11-11T04:44:23;99311.81;;;6.40;100.00
5062;BME280;2351;50.812;12.872;2022-11-11T04:47:12;99318.66;;;6.44;100.00
5062;BME280;2351;50.812;12.872;2022-11-11T04:49:45;99311.50;;;6.48;100.00
5062;BME280;2351;50.812;12.872;2022-11-11T04:52:16;99306.84;;;6.53;100.00
5062;BME280;2351;50.812;12.872;2022-11-11T04:54:58;99307.47;;;6.58;100.00
5062;BME280;2351;50.812;12.872;2022-11-11T04:57:47;99314.16;;;6.66;100.00
5062;BME280;2351;50.812;12.872;2022-11-11T05:00:20;99303.41;;;6.70;100.00
5062;BME280;2351;50.812;12.872;2022-11-11T05:02:53;99311.06;;;6.75;100.00
5062;BME280;2351;50.812;12.872;2022-11-11T05:05:44;99305.66;;;6.78;100.00
5062;BME280;2351;50.812;12.872;2022-11-11T05:08:35;99300.47;;;6.76;100.00
5062;BME280;2351;50.812;12.872;2022-11-11T05:11:26;99295.22;;;6.76;100.00
5062;BME280;2351;50.812;12.872;2022-11-11T05:14:02;99291.03;;;6.72;100.00
5062;BME280;2351;50.812;12.872;2022-11-11T05:16:55;99288.69;;;6.66;100.00
5062;BME280;2351;50.812;12.872;2022-11-11T05:19:44;99293.16;;;6.64;100.00
5062;BME280;2351;50.812;12.872;2022-11-11T05:22:35;99291.47;;;6.63;100.00
5062;BME280;2351;50.812;12.872;2022-11-11T05:25:08;99284.44;;;6.63;100.00
5062;BME280;2351;50.812;12.872;2022-11-11T05:27:55;99281.81;;;6.63;100.00
5062;BME280;2351;50.812;12.872;2022-11-11T05:30:27;99292.47;;;6.60;100.00
5062;BME280;2351;50.812;12.872;2022-11-11T05:33:01;99286.38;;;6.60;100.00
5062;BME280;2351;50.812;12.872;2022-11-11T05:35:33;99287.44;;;6.56;100.00
5062;BME280;2351;50.812;12.872;2022-11-11T05:38:06;99298.81;;;6.56;100.00
5062;BME280;2351;50.812;12.872;2022-11-11T05:40:51;99300.59;;;6.56;100.00
5062;BME280;2351;50.812;12.872;2022-11-11T05:43:23;99297.09;;;6.55;100.00
5062;BME280;2351;50.812;12.872;2022-11-11T05:45:55;99309.56;;;6.52;100.00
5062;BME280;2351;50.812;12.872;2022-11-11T05:48:28;99307.72;;;6.54;100.00
5062;BME280;2351;50.812;12.872;2022-11-11T05:50:59;99314.69;;;6.55;100.00
5062;BME280;2351;50.812;12.872;2022-11-11T05:53:32;99312.97;;;6.54;100.00
5062;BME280;2351;50.812;12.872;2022-11-11T05:56:03;99323.41;;;6.55;100.00
5062;BME280;2351;50.812;12.872;2022-11-11T05:58:35;99326.19;;;6.52;100.00
5062;BME280;2351;50.812;12.872;2022-11-11T06:01:07;99334.16;;;6.51;100.00
5062;BME280;2351;50.812;12.872;2022-11-11T06:03:40;99328.06;;;6.50;100.00
5062;BME280;2351;50.812;12.872;2022-11-11T06:06:12;99319.00;;;6.56;100.00
5062;BME280;2351;50.812;12.872;2022-11-11T06:08:44;99314.53;;;6.58;100.00
5062;BME280;2351;50.812;12.872;2022-11-11T06:11:16;99316.84;;;6.64;100.00
5062;BME280;2351;50.812;12.872;2022-11-11T06:13:48;99331.56;;;6.68;100.00
5062;BME280;2351;50.812;12.872;2022-11-11T06:16:20;99328.94;;;6.68;100.00
5062;BME280;2351;50.812;12.872;2022-11-11T06:18:53;99330.72;;;6.68;100.00
5062;BME280;2351;50.812;12.872;2022-11-11T06:21:25;99325.47;;;6.68;100.00
5062;BME280;2351;50.812;12.872;2022-11-11T06:23:57;99323.66;;;6.68;100.00
5062;BME280;2351;50.812;12.872;2022-11-11T06:26:29;99319.28;;;6.69;100.00
5062;BME280;2351;50.812;12.872;2022-11-11T06:28:59;99329.84;;;6.67;100.00
5062;BME280;2351;50.812;12.872;2022-11-11T06:31:33;99327.88;;;6.72;100.00
5062;BME280;2351;50.812;12.872;2022-11-11T06:34:06;99318.03;;;6.76;100.00
5062;BME280;2351;50.812;12.872;2022-11-11T06:36:38;99326.56;;;6.81;100.00
5062;BME280;2351;50.812;12.872;2022-11-11T06:39:09;99322.88;;;6.85;100.00
5062;BME280;2351;50.812;12.872;2022-11-11T06:41:41;99320.88;;;6.90;100.00
5062;BME280;2351;50.812;12.872;2022-11-11T06:44:13;99326.69;;;6.97;100.00
5062;BME280;2351;50.812;12.872;2022-11-11T06:46:44;99329.94;;;7.02;100.00
5062;BME280;2351;50.812;12.872;2022-11-11T06:49:17;99325.38;;;7.06;100.00
5062;BME280;2351;50.812;12.872;2022-11-11T06:51:49;99328.63;;;7.11;100.00
5062;BME280;2351;50.812;12.872;2022-11-11T06:54:21;99331.88;;;7.16;100.00
5062;BME280;2351;50.812;12.872;2022-11-11T06:56:53;99330.09;;;7.17;100.00
5062;BME280;2351;50.812;12.872;2022-11-11T06:59:24;99333.25;;;7.23;100.00
5062;BME280;2351;50.812;12.872;2022-11-11T07:01:56;99327.78;;;7.28;100.00
5062;BME280;2351;50.812;12.872;2022-11-11T07:04:29;99326.69;;;7.32;100.00
5062;BME280;2351;50.812;12.872;2022-11-11T07:07:01;99325.53;;;7.38;100.00
5062;BME280;2351;50.812;12.872;2022-11-11T07:09:32;99317.25;;;7.46;100.00
5062;BME280;2351;50.812;12.872;2022-11-11T07:12:04;99328.47;;;7.49;100.00
5062;BME280;2351;50.812;12.872;2022-11-11T07:14:36;99338.75;;;7.54;100.00
5062;BME280;2351;50.812;12.872;2022-11-11T07:17:08;99342.88;;;7.60;100.00
5062;BME280;2351;50.812;12.872;2022-11-11T07:19:41;99346.19;;;7.63;100.00
5062;BME280;2351;50.812;12.872;2022-11-11T07:22:13;99357.41;;;7.67;100.00
5062;BME280;2351;50.812;12.872;2022-11-11T07:24:45;99356.34;;;7.71;100.00
5062;BME280;2351;50.812;12.872;2022-11-11T07:27:16;99351.75;;;7.75;100.00
5062;BME280;2351;50.812;12.872;2022-11-11T07:29:48;99354.16;;;7.79;100.00
5062;BME280;2351;50.812;12.872;2022-11-11T07:32:19;99343.38;;;7.84;100.00
5062;BME280;2351;50.812;12.872;2022-11-11T07:34:53;99344.81;;;7.90;100.00
5062;BME280;2351;50.812;12.872;2022-11-11T07:37:24;99346.22;;;7.97;100.00
5062;BME280;2351;50.812;12.872;2022-11-11T07:39:56;99353.03;;;8.01;99.98
5062;BME280;2351;50.812;12.872;2022-11-11T07:42:28;99348.59;;;8.02;99.36
5062;BME280;2351;50.812;12.872;2022-11-11T07:44:59;99346.47;;;8.08;99.03
5062;BME280;2351;50.812;12.872;2022-11-11T07:47:31;99348.47;;;8.21;99.24
5062;BME280;2351;50.812;12.872;2022-11-11T07:50:06;99344.75;;;8.25;98.02
5062;BME280;2351;50.812;12.872;2022-11-11T07:52:38;99348.66;;;8.34;97.53
5062;BME280;2351;50.812;12.872;2022-11-11T07:55:10;99354.56;;;8.55;97.53
5062;BME280;2351;50.812;12.872;2022-11-11T07:57:42;99352.63;;;9.05;99.11
5062;BME280;2351;50.812;12.872;2022-11-11T08:00:14;99346.66;;;9.48;97.16
5062;BME280;2351;50.812;12.872;2022-11-11T08:02:46;99341.50;;;9.75;94.74
5062;BME280;2351;50.812;12.872;2022-11-11T08:05:19;99351.72;;;9.82;92.80
5062;BME280;2351;50.812;12.872;2022-11-11T08:07:51;99346.59;;;9.78;88.36
5062;BME280;2351;50.812;12.872;2022-11-11T08:10:23;99360.47;;;9.68;86.96
5062;BME280;2351;50.812;12.872;2022-11-11T08:12:54;99370.97;;;9.69;89.20
5062;BME280;2351;50.812;12.872;2022-11-11T08:15:44;99377.78;;;9.88;89.61
5062;BME280;2351;50.812;12.872;2022-11-11T08:18:16;99382.78;;;10.07;89.38
5062;BME280;2351;50.812;12.872;2022-11-11T08:20:49;99390.56;;;10.24;89.74
5062;BME280;2351;50.812;12.872;2022-11-11T08:23:21;99391.97;;;10.16;86.66
5062;BME280;2351;50.812;12.872;2022-11-11T08:26:04;99393.09;;;10.26;86.34
5062;BME280;2351;50.812;12.872;2022-11-11T08:28:37;99391.41;;;10.25;82.27
5062;BME280;2351;50.812;12.872;2022-11-11T08:31:08;99402.06;;;10.38;84.16
5062;BME280;2351;50.812;12.872;2022-11-11T08:33:40;99400.31;;;10.38;82.10
5062;BME280;2351;50.812;12.872;2022-11-11T08:36:13;99406.16;;;10.44;81.34
5062;BME280;2351;50.812;12.872;2022-11-11T08:38:45;99415.06;;;10.43;79.83
5062;BME280;2351;50.812;12.872;2022-11-11T08:41:17;99422.91;;;10.44;80.44
5062;BME280;2351;50.812;12.872;2022-11-11T08:43:51;99416.66;;;10.60;81.22
5062;BME280;2351;50.812;12.872;2022-11-11T08:46:23;99420.44;;;10.70;79.60
5062;BME280;2351;50.812;12.872;2022-11-11T08:48:55;99411.31;;;10.74;77.59
5062;BME280;2351;50.812;12.872;2022-11-11T08:51:28;99410.38;;;10.75;77.53
5062;BME280;2351;50.812;12.872;2022-11-11T08:54:00;99417.28;;;10.78;76.74
5062;BME280;2351;50.812;12.872;2022-11-11T08:56:31;99418.59;;;10.85;76.70
5062;BME280;2351;50.812;12.872;2022-11-11T08:59:03;99421.72;;;10.92;76.38
5062;BME280;2351;50.812;12.872;2022-11-11T09:01:35;99422.91;;;11.00;75.78
5062;BME280;2351;50.812;12.872;2022-11-11T09:04:06;99426.03;;;11.07;75.12
5062;BME280;2351;50.812;12.872;2022-11-11T09:06:39;99432.41;;;11.18;75.39
5062;BME280;2351;50.812;12.872;2022-11-11T09:09:14;99432.75;;;11.26;75.25
5062;BME280;2351;50.812;12.872;2022-11-11T09:11:46;99447.78;;;11.40;75.46
5062;BME280;2351;50.812;12.872;2022-11-11T09:14:18;99445.91;;;11.55;74.22
5062;BME280;2351;50.812;12.872;2022-11-11T09:16:49;99444.13;;;11.68;74.56
5062;BME280;2351;50.812;12.872;2022-11-11T09:19:21;99438.19;;;11.65;72.93
5062;BME280;2351;50.812;12.872;2022-11-11T09:21:54;99439.22;;;11.62;72.05
5062;BME280;2351;50.812;12.872;2022-11-11T09:24:26;99442.94;;;11.59;71.79
5062;BME280;2351;50.812;12.872;2022-11-11T09:26:57;99435.75;;;11.62;71.19
5062;BME280;2351;50.812;12.872;2022-11-11T09:29:29;99440.09;;;11.63;71.26
5062;BME280;2351;50.812;12.872;2022-11-11T09:32:01;99437.31;;;11.64;71.14
5062;BME280;2351;50.812;12.872;2022-11-11T09:34:33;99432.97;;;11.63;69.80
5062;BME280;2351;50.812;12.872;2022-11-11T09:37:06;99435.09;;;11.58;69.30
5062;BME280;2351;50.812;12.872;2022-11-11T09:39:37;99429.13;;;11.54;68.83
5062;BME280;2351;50.812;12.872;2022-11-11T09:42:15;99431.03;;;11.52;69.27
5062;BME280;2351;50.812;12.872;2022-11-11T09:45:09;99441.56;;;11.54;69.54
5062;BME280;2351;50.812;12.872;2022-11-11T09:47:50;99436.25;;;11.54;69.37
5062;BME280;2351;50.812;12.872;2022-11-11T09:50:28;99443.16;;;11.56;69.58
5062;BME280;2351;50.812;12.872;2022-11-11T09:53:08;99433.28;;;11.58;69.53
5062;BME280;2351;50.812;12.872;2022-11-11T09:55:43;99426.41;;;11.56;68.72
5062;BME280;2351;50.812;12.872;2022-11-11T09:58:18;99418.97;;;11.61;69.11
5062;BME280;2351;50.812;12.872;2022-11-11T10:00:57;99425.97;;;11.62;68.51
5062;BME280;2351;50.812;12.872;2022-11-11T10:03:33;99431.94;;;11.66;68.20
5062;BME280;2351;50.812;12.872;2022-11-11T10:06:14;99428.97;;;11.70;67.96
5062;BME280;2351;50.812;12.872;2022-11-11T10:08:53;99435.66;;;11.76;67.81
5062;BME280;2351;50.812;12.872;2022-11-11T10:11:41;99429.06;;;11.82;67.87
5062;BME280;2351;50.812;12.872;2022-11-11T10:14:15;99433.88;;;11.89;67.76
5062;BME280;2351;50.812;12.872;2022-11-11T10:16:52;99427.88;;;12.00;67.65
5062;BME280;2351;50.812;12.872;2022-11-11T10:19:29;99427.22;;;12.10;67.24
5062;BME280;2351;50.812;12.872;2022-11-11T10:22:08;99431.38;;;12.14;67.25
5062;BME280;2351;50.812;12.872;2022-11-11T10:24:50;99436.78;;;12.25;67.17
5062;BME280;2351;50.812;12.872;2022-11-11T10:27:23;99431.16;;;12.30;66.44
5062;BME280;2351;50.812;12.872;2022-11-11T10:29:55;99426.28;;;12.37;66.32
5062;BME280;2351;50.812;12.872;2022-11-11T10:32:32;99414.78;;;12.49;66.71
5062;BME280;2351;50.812;12.872;2022-11-11T10:35:15;99416.56;;;12.61;66.40
5062;BME280;2351;50.812;12.872;2022-11-11T10:37:54;99419.50;;;12.70;65.44
5062;BME280;2351;50.812;12.872;2022-11-11T10:40:34;99416.34;;;12.77;65.64
5062;BME280;2351;50.812;12.872;2022-11-11T10:43:17;99415.38;;;12.78;64.91
5062;BME280;2351;50.812;12.872;2022-11-11T10:45:58;99415.03;;;12.83;65.08
5062;BME280;2351;50.812;12.872;2022-11-11T10:48:39;99415.56;;;12.88;64.74
5062;BME280;2351;50.812;12.872;2022-11-11T10:51:15;99420.41;;;12.94;64.75
5062;BME280;2351;50.812;12.872;2022-11-11T10:53:55;99408.81;;;12.95;63.37
5062;BME280;2351;50.812;12.872;2022-11-11T10:56:34;99416.88;;;13.07;64.21
5062;BME280;2351;50.812;12.872;2022-11-11T10:59:14;99415.63;;;13.24;64.17
5062;BME280;2351;50.812;12.872;2022-11-11T11:01:53;99415.75;;;13.47;64.07
5062;BME280;2351;50.812;12.872;2022-11-11T11:04:32;99418.00;;;13.64;63.52
5062;BME280;2351;50.812;12.872;2022-11-11T11:07:09;99413.94;;;13.83;63.02
5062;BME280;2351;50.812;12.872;2022-11-11T11:09:48;99420.75;;;13.98;61.62
5062;BME280;2351;50.812;12.872;2022-11-11T11:12:27;99410.84;;;14.12;60.96
5062;BME280;2351;50.812;12.872;2022-11-11T11:15:04;99412.88;;;14.08;60.65
5062;BME280;2351;50.812;12.872;2022-11-11T11:17:41;99415.91;;;14.04;60.05
5062;BME280;2351;50.812;12.872;2022-11-11T11:20:19;99408.03;;;14.02;59.72
5062;BME280;2351;50.812;12.872;2022-11-11T11:22:52;99412.66;;;14.00;59.76
5062;BME280;2351;50.812;12.872;2022-11-11T11:25:26;99414.34;;;14.01;60.03
5062;BME280;2351;50.812;12.872;2022-11-11T11:28:08;99419.41;;;14.04;59.70
5062;BME280;2351;50.812;12.872;2022-11-11T11:30:57;99423.03;;;14.03;59.54
5062;BME280;2351;50.812;12.872;2022-11-11T11:33:49;99422.06;;;14.04;59.89
5062;BME280;2351;50.812;12.872;2022-11-11T11:36:21;99411.19;;;13.96;59.62
5062;BME280;2351;50.812;12.872;2022-11-11T11:38:53;99415.53;;;13.97;59.95
5062;BME280;2351;50.812;12.872;2022-11-11T11:41:36;99410.69;;;14.02;59.94
5062;BME280;2351;50.812;12.872;2022-11-11T11:44:25;99414.81;;;14.06;60.26
5062;BME280;2351;50.812;12.872;2022-11-11T11:47:11;99419.06;;;14.09;60.12
5062;BME280;2351;50.812;12.872;2022-11-11T11:50:01;99422.56;;;14.09;60.19
5062;BME280;2351;50.812;12.872;2022-11-11T11:52:42;99415.31;;;14.11;60.21
5062;BME280;2351;50.812;12.872;2022-11-11T11:55:21;99409.03;;;14.12;60.38
5062;BME280;2351;50.812;12.872;2022-11-11T11:58:02;99406.97;;;14.16;60.36
5062;BME280;2351;50.812;12.872;2022-11-11T12:00:48;99410.50;;;14.16;60.33
5062;BME280;2351;50.812;12.872;2022-11-11T12:03:47;99397.66;;;14.10;59.97
5062;BME280;2351;50.812;12.872;2022-11-11T12:06:28;99392.22;;;14.12;59.99
5062;BME280;2351;50.812;12.872;2022-11-11T12:09:14;99401.53;;;14.18;60.22
5062;BME280;2351;50.812;12.872;2022-11-11T12:11:55;99402.38;;;14.18;60.05
5062;BME280;2351;50.812;12.872;2022-11-11T12:14:44;99397.66;;;14.10;59.48
5062;BME280;2351;50.812;12.872;2022-11-11T12:17:34;99398.25;;;14.14;59.88
5062;BME280;2351;50.812;12.872;2022-11-11T12:20:15;99392.22;;;14.23;60.02
5062;BME280;2351;50.812;12.872;2022-11-11T12:23:11;99386.19;;;14.33;59.72
5062;BME280;2351;50.812;12.872;2022-11-11T12:25:54;99376.13;;;14.36;59.74
5062;BME280;2351;50.812;12.872;2022-11-11T12:28:45;99372.34;;;14.39;59.65
5062;BME280;2351;50.812;12.872;2022-11-11T12:31:26;99365.81;;;14.43;59.56
5062;BME280;2351;50.812;12.872;2022-11-11T12:34:15;99361.59;;;14.40;59.01
5062;BME280;2351;50.812;12.872;2022-11-11T12:36:57;99376.13;;;14.36;59.43
5062;BME280;2351;50.812;12.872;2022-11-11T12:39:47;99374.41;;;14.35;59.25
5062;BME280;2351;50.812;12.872;2022-11-11T12:42:32;99374.16;;;14.27;58.92
5062;BME280;2351;50.812;12.872;2022-11-11T12:45:13;99367.16;;;14.26;59.17
5062;BME280;2351;50.812;12.872;2022-11-11T12:47:55;99370.06;;;14.23;58.98
5062;BME280;2351;50.812;12.872;2022-11-11T12:50:35;99361.09;;;14.24;59.12
5062;BME280;2351;50.812;12.872;2022-11-11T12:53:17;99355.78;;;14.24;58.93
5062;BME280;2351;50.812;12.872;2022-11-11T12:56:00;99358.56;;;14.22;59.07
5062;BME280;2351;50.812;12.872;2022-11-11T12:58:39;99353.38;;;14.21;58.98
5062;BME280;2351;50.812;12.872;2022-11-11T13:01:23;99353.63;;;14.18;58.88
5062;BME280;2351;50.812;12.872;2022-11-11T13:04:25;99360.13;;;14.13;58.83
5062;BME280;2351;50.812;12.872;2022-11-11T13:07:13;99362.53;;;14.05;58.86
5062;BME280;2351;50.812;12.872;2022-11-11T13:10:00;99351.78;;;13.95;59.03
5062;BME280;2351;50.812;12.872;2022-11-11T13:12:39;99359.28;;;13.90;59.51
5062;BME280;2351;50.812;12.872;2022-11-11T13:15:16;99356.00;;;13.86;59.65
5062;BME280;2351;50.812;12.872;2022-11-11T13:17:48;99360.72;;;13.83;59.76
5062;BME280;2351;50.812;12.872;2022-11-11T13:20:28;99364.56;;;13.79;60.00
5062;BME280;2351;50.812;12.872;2022-11-11T13:23:08;99361.31;;;13.75;60.34
5062;BME280;2351;50.812;12.872;2022-11-11T13:25:45;99357.94;;;13.73;60.65
5062;BME280;2351;50.812;12.872;2022-11-11T13:28:20;99359.94;;;13.69;60.75
5062;BME280;2351;50.812;12.872;2022-11-11T13:31:18;99365.41;;;13.68;60.85
5062;BME280;2351;50.812;12.872;2022-11-11T13:33:55;99359.72;;;13.61;61.08
5062;BME280;2351;50.812;12.872;2022-11-11T13:36:32;99363.56;;;13.57;61.20
5062;BME280;2351;50.812;12.872;2022-11-11T13:39:22;99374.56;;;13.52;61.40
5062;BME280;2351;50.812;12.872;2022-11-11T13:41:55;99369.47;;;13.49;61.51
5062;BME280;2351;50.812;12.872;2022-11-11T13:44:31;99369.09;;;13.43;61.70
5062;BME280;2351;50.812;12.872;2022-11-11T13:47:06;99371.31;;;13.36;61.83
5062;BME280;2351;50.812;12.872;2022-11-11T13:49:45;99377.63;;;13.35;62.03
5062;BME280;2351;50.812;12.872;2022-11-11T13:52:21;99378.81;;;13.31;62.13
5062;BME280;2351;50.812;12.872;2022-11-11T13:54:59;99379.25;;;13.24;62.13
5062;BME280;2351;50.812;12.872;2022-11-11T13:57:32;99381.41;;;13.19;62.21
5062;BME280;2351;50.812;12.872;2022-11-11T14:00:22;99378.22;;;13.14;62.23
5062;BME280;2351;50.812;12.872;2022-11-11T14:03:30;99379.44;;;13.10;62.42